Tiempo atmosférico en la estación meteorológica de Autilla del Pino, Palencia (874 m.)



Fecha
DESCASC
Temp. máxima en grados centígrados (hora)
DESCASC
Temp. mínima en grados centígrados (hora)
DESCASC
Temp. media en grados centígrados
DESCASC
Racha de viento máxima en m/sg (hora)
DESCASC
Velocidad máxima media en intervalos de 10 minutos(hora)
DESCASC
Precipitaciones diarias en mm
DESCASC
Precipitaciones de 00:00 a 06:00 en mm
DESCASC
Precipitaciones de 06:00 a 12:00 en mm
DESCASC
Precipitaciones de 12:00 a 18:00 en mm
DESCASC
Precipitaciones de 18:00 a 24:00 en mm
DESCASC
19-01-2020 5.1 (13:50) -1 (23:59) 2 23.61 (14:50) 16.39 (23:20) 0 0 0 0 0
18-01-2020 9.8 (16:30) 1.2 (00:10) 5.5 26.11 (18:10) 11.11 (18:10) 1 0 0 0 1
17-01-2020 8.6 (14:30) 1 (23:10) 4.8 12.78 (06:30) 8.89 (11:50) 0 0 0 0 0
16-01-2020 11.8 (14:10) 4.3 (00:00) 8.1 16.11 (20:50) 12.22 (15:30) 0 0 0 0 0
15-01-2020 9.8 (15:00) 3.3 (00:00) 6.6 25.83 (01:30) 10.28 (10:50) 0 0 0 0 0
14-01-2020 7.2 (16:10) -1 (-00:0) 3.1 11.94 (22:30) 8.89 (10:30) 0 0 0 0 0
13-01-2020 1.4 (16:10) -4.9 (-00:0) -1.8 5.28 (23:40) 4.17 (23:30) 0 0 0 0 0
12-01-2020 2.5 (15:00) -7.4 (09:10) -2.5 4.17 (16:20) 3.33 (16:20) 0 0 0 0 0
11-01-2020 6.6 (14:00) -5.5 (-00:0) 0.5 8.89 (00:50) 6.67 (00:50) 0 0 0 0 0
10-01-2020 7.8 (13:50) -2.5 (-00:0) 2.7 10.28 (00:10) 7.78 (00:10) 0 0 0 0 0
09-01-2020 8.9 (17:10) -1.7 (-00:0) 3.6 11.67 (17:20) 8.61 (23:50) 0 0 0 0 0
08-01-2020 7.9 (15:10) -4.9 (-00:0) 1.5 3.61 (16:50) 3.06 (17:00) 0 0 0 0 0
07-01-2020 3.1 (15:00) -4.4 (-00:0) -0.7 3.33 (09:00) 2.22 (09:10) 0 0 0 0 0
06-01-2020 -0.3 (15:50) -4.5 (-00:0) -2.4 3.61 (20:40) 2.22 (16:00) 0 0 0 0 0
05-01-2020 5.7 (14:40) -3.5 (-00:0) 1.1 4.72 (00:40) 4.17 (04:00) 0 0 0 0 0
04-01-2020 7.4 (16:10) 0 (00:00) 3.7 8.06 (16:00) 6.11 (16:00) 0 0 0 0 0
03-01-2020 4.9 (15:50) -4.8 (-00:0) 0 4.72 (04:20) 4.17 (04:30) 0 0 0 0 0
02-01-2020 6.9 (15:50) -3.9 (-00:0) 1.5 4.44 (19:50) 3.89 (19:50) 0 0 0 0 0
01-01-2020 6.5 (12:40) -4.7 (-00:0) 0.9 3.61 (23:30) 3.06 (23:59) 0 0 0 0 0
31-12-2019 10.2 (15:40) -4.3 (-00:0) 2.9 2.78 (09:00) 2.22 (09:00) -- -- 0 0 0
30-12-2019 -- (--) -- (--) -- -- (--) -- (--) -- 0 0 0 --
29-12-2019 11.6 (16:50) -1.1 (-00:0) 5.3 3.06 (05:10) 2.78 (05:10) 0 0 0 0 0
28-12-2019 10.9 (17:00) -4.7 (-00:0) 3.1 3.61 (10:20) 2.78 (10:20) 0 0 0 0 0
27-12-2019 4.9 (16:20) -3.7 (-00:0) 0.6 4.72 (04:00) 3.33 (00:30) 0 0 0 0 0
26-12-2019 9.8 (15:00) 0.7 (00:00) 5.3 6.39 (01:30) 4.72 (02:00) 0 0 0 0 0
25-12-2019 10.9 (13:40) 3.7 (00:00) 7.3 5.83 (23:20) 4.44 (23:20) 0 0 0 0 0
24-12-2019 11.9 (15:50) 5.2 (00:00) 8.5 7.5 (03:20) 5.83 (00:30) 0 0 0 0 0
23-12-2019 9.1 (15:20) 0.2 (00:00) 4.7 11.67 (00:40) 8.89 (00:30) 0 0 0 0 0

Gráficas

Temp. máximas Temp. mínimas Temp. medias Precipitaciones Rachas de viento máximas Velocidades máximas media en intervalos de 10 minutos

Datos horarios

Fecha y hora oficial Temperatura (ºC) Velocidad del viento (km/h) Dirección del viento Racha (km/h) Dirección de racha Precipitación (mm) Presión (hPa) Tendencia (hPa) Humedad (%)
2020-01-21 23:00:00 1 32 Nordeste 48 Este 0 -- -- 91
2020-01-21 22:00:00 0.9 27 Nordeste 48 Nordeste 0 -- -- 91
2020-01-21 21:00:00 1 30 Nordeste 50 Este 0 -- -- 92
2020-01-21 20:00:00 0.8 31 Este 44 Este 0 -- -- 92
2020-01-21 19:00:00 0.8 26 Nordeste 46 Este 0 -- -- 93
2020-01-21 18:00:00 0.8 32 Nordeste 55 Nordeste 0 -- -- 94
2020-01-21 17:00:00 0.7 35 Nordeste 65 Nordeste 0 -- -- 91
2020-01-21 16:00:00 2 43 Nordeste 60 Nordeste 0 -- -- 82
2020-01-21 15:00:00 2.1 37 Nordeste 58 Este 0 -- -- 78
2020-01-21 14:00:00 2 45 Nordeste 62 Nordeste 0 -- -- 76
2020-01-21 13:00:00 2 44 Nordeste 64 Este 0 -- -- 74
2020-01-21 12:00:00 1.5 42 Nordeste 59 Nordeste 0 -- -- 79
2020-01-21 11:00:00 0.5 41 Nordeste 58 Nordeste 0 -- -- 79
2020-01-21 10:00:00 0.1 39 Nordeste 59 Nordeste 0 -- -- 77
2020-01-21 09:00:00 -0.3 44 Nordeste 58 Nordeste 0 -- -- 76
2020-01-21 08:00:00 -0.3 32 Nordeste 49 Nordeste 0 -- -- 73
2020-01-21 07:00:00 -0.7 29 Nordeste 45 Nordeste 0 -- -- 77
2020-01-21 06:00:00 -0.8 26 Nordeste 45 Este 0 -- -- 78
2020-01-21 05:00:00 -1 30 Nordeste 48 Nordeste 0 -- -- 78
2020-01-21 04:00:00 -0.9 30 Nordeste 46 Nordeste 0 -- -- 78
2020-01-21 03:00:00 -0.8 29 Este 50 Nordeste 0 -- -- 78
2020-01-21 02:00:00 -1 30 Nordeste 48 Este 0 -- -- 77
2020-01-21 01:00:00 -0.8 35 Nordeste 50 Este 0 -- -- 79
2020-01-21 00:00:00 -0.9 25 Nordeste 54 Este 0 -- -- 77
2020-01-20 23:00:00 -1.1 27 Nordeste 62 Este 0 -- -- 76
2020-01-20 22:00:00 -1 34 Este 48 Este 0 -- -- 72
2020-01-20 21:00:00 -1.3 29 Nordeste 46 Nordeste 0 -- -- 69
2020-01-20 20:00:00 -1 31 Nordeste 57 Este 0 -- -- 67
2020-01-20 19:00:00 -0.7 30 Nordeste 49 Nordeste 0 -- -- 66
2020-01-20 18:00:00 -0.1 36 Nordeste 55 Este 0 -- -- 62
2020-01-20 17:00:00 0.2 41 Nordeste 58 Nordeste 0 -- -- 61
2020-01-20 16:00:00 0.5 42 Nordeste 61 Nordeste 0 -- -- 58
2020-01-20 15:00:00 0.7 38 Este 64 Este 0 -- -- 57
2020-01-20 14:00:00 0.7 43 Nordeste 68 Nordeste 0 -- -- 55
2020-01-20 13:00:00 1.3 48 Nordeste 69 Este 0 -- -- 54
2020-01-20 12:00:00 0.1 50 Nordeste 75 Este 0 -- -- 55
2020-01-20 11:00:00 0 50 Nordeste 79 Este 0 -- -- 56
2020-01-20 10:00:00 -0.8 51 Nordeste 72 Nordeste 0 -- -- 61
2020-01-20 09:00:00 -1.9 44 Nordeste 93 Nordeste 0 -- -- 69
2020-01-20 08:00:00 -2 48 Nordeste 70 Nordeste 0 -- -- 73
2020-01-20 07:00:00 -1.9 40 Nordeste 58 Nordeste 0 -- -- 71
2020-01-20 06:00:00 -1.6 40 Nordeste 61 Nordeste 0 -- -- 71
2020-01-20 05:00:00 -1.3 45 Nordeste 67 Nordeste 0 -- -- 70
2020-01-20 04:00:00 -1.2 37 Este 58 Nordeste 0 -- -- 69
2020-01-20 03:00:00 -1 42 Nordeste 60 Nordeste 0 -- -- 67
2020-01-20 02:00:00 -1.2 35 Nordeste 57 Nordeste 0 -- -- 66
2020-01-20 01:00:00 -0.8 41 Nordeste 70 Nordeste 0 -- -- 66
2020-01-20 00:00:00 -1 35 Nordeste 77 Nordeste 0 -- -- 70
2020-01-19 23:00:00 -0.5 57 Nordeste 76 Nordeste 0 -- -- 66
2020-01-19 22:00:00 -0.2 41 Nordeste 83 Nordeste 0 -- -- 64
2020-01-19 21:00:00 0 57 Nordeste 83 Nordeste 0 -- -- 62
2020-01-19 20:00:00 0.1 51 Nordeste 80 Nordeste 0 -- -- 58
2020-01-19 19:00:00 0.3 33 Nordeste 68 Nordeste 0 -- -- 56
2020-01-19 18:00:00 1.3 44 Nordeste 70 Nordeste 0 -- -- 52
2020-01-19 17:00:00 2.5 48 Nordeste 75 Nordeste 0 -- -- 49
2020-01-19 16:00:00 3.4 49 Nordeste 82 Nordeste 0 -- -- 47
2020-01-19 15:00:00 4.1 51 Nordeste 85 Nordeste 0 -- -- 50
2020-01-19 14:00:00 4.5 50 Nordeste 78 Nordeste 0 -- -- 56
2020-01-19 13:00:00 4.2 55 Nordeste 77 Nordeste 0 -- -- 53
2020-01-19 12:00:00 3.9 50 Nordeste 79 Nordeste 0 -- -- 60
2020-01-19 11:00:00 3.2 41 Nordeste 66 Nordeste 0 -- -- 63
2020-01-19 10:00:00 2.1 29 Nordeste 49 Nordeste 0 -- -- 84
2020-01-19 09:00:00 2.1 24 Nordeste 49 Nordeste 0 -- -- 88
2020-01-19 08:00:00 2.4 32 Nordeste 48 Nordeste 0 -- -- 88
2020-01-19 07:00:00 1 17 Norte 32 Norte 0 -- -- 95
2020-01-19 06:00:00 0.4 11 Nordeste 16 Nordeste 0 -- -- 98
2020-01-19 05:00:00 0 5 Norte 10 Nordeste 0 -- -- 98
2020-01-19 04:00:00 -0.4 6 Noroeste 10 Noroeste 0 -- -- 97
2020-01-19 03:00:00 -0.3 8 Noroeste 10 Noroeste 0 -- -- 96
2020-01-19 02:00:00 0.5 8 Noroeste 17 Noroeste 0 -- -- 95
2020-01-19 01:00:00 0.6 13 Noroeste 18 Noroeste 0 -- -- 92
2020-01-19 00:00:00 1.9 15 Noroeste 22 Oeste 0 -- -- 90
2020-01-18 23:00:00 1.6 10 Noroeste 17 Noroeste 0 -- -- 89
2020-01-18 22:00:00 2.3 16 Noroeste 23 Noroeste 0 -- -- 84
2020-01-18 21:00:00 2.3 13 Noroeste 34 Oeste 0 -- -- 84
2020-01-18 20:00:00 4.7 23 Noroeste 38 Noroeste 0 -- -- 81
2020-01-18 19:00:00 5.3 22 Noroeste 94 Noroeste 1 -- -- 92
2020-01-18 18:00:00 8.8 33 Oeste 57 Oeste 0 -- -- 84
2020-01-18 17:00:00 9.3 35 Oeste 63 Oeste 0 -- -- 81
2020-01-18 16:00:00 9.4 33 Sudoeste 53 Oeste 0 -- -- 91
2020-01-18 15:00:00 7.8 30 Sudoeste 40 Sudoeste 0 -- -- 97
2020-01-18 14:00:00 6.6 30 Sudoeste 42 Sudoeste 0 -- -- 96
2020-01-18 13:00:00 6 30 Sudoeste 40 Sudoeste 0 -- -- 94
2020-01-18 12:00:00 5.4 25 Sur 32 Sudoeste 0 -- -- 94
2020-01-18 11:00:00 4.6 14 Sur 22 Sur 0 -- -- 91
2020-01-18 10:00:00 3.4 14 Sur 20 Sur 0 -- -- 91
2020-01-18 09:00:00 2.5 13 Sur 45 Sur 0 -- -- 91
2020-01-18 08:00:00 2.2 16 Sur 19 Sur 0 -- -- 89
2020-01-18 07:00:00 2.1 15 Sur 20 Sur 0 -- -- 89
2020-01-18 06:00:00 2.1 9 Sur 15 Sur 0 -- -- 88
2020-01-18 05:00:00 2 14 Sur 19 Sur 0 -- -- 87
2020-01-18 04:00:00 2 10 Sudoeste 12 Sudoeste 0 -- -- 88
2020-01-18 03:00:00 2 6 Sudeste 12 Sur 0 -- -- 89
2020-01-18 02:00:00 2.4 7 Sur 10 Sur 0 -- -- 83
2020-01-18 01:00:00 2.6 5 Sur 9 Sur 0 -- -- 78
2020-01-18 00:00:00 1.5 7 Sur 10 Sur 0 -- -- 79
2020-01-17 23:00:00 1.7 8 Sudoeste 9 Sudoeste 0 -- -- 75
2020-01-17 22:00:00 2.5 6 Sudoeste 15 Oeste 0 -- -- 77
2020-01-17 21:00:00 2.3 12 Oeste 14 Oeste 0 -- -- 75
2020-01-17 20:00:00 2.1 11 Oeste 13 Oeste 0 -- -- 75
2020-01-17 19:00:00 3.5 9 Oeste 18 Oeste 0 -- -- 68
2020-01-17 18:00:00 4.7 9 Oeste 23 Oeste 0 -- -- 64
2020-01-17 17:00:00 6.5 19 Oeste 30 Oeste 0 -- -- 55
2020-01-17 16:00:00 7 19 Oeste 28 Oeste 0 -- -- 56
2020-01-17 15:00:00 7.3 24 Oeste 30 Noroeste 0 -- -- 56
2020-01-17 14:00:00 7.2 22 Oeste 36 Oeste 0 -- -- 59
2020-01-17 13:00:00 7.3 28 Oeste 42 Oeste 0 -- -- 62
2020-01-17 12:00:00 6.8 30 Oeste 42 Oeste 0 -- -- 68
2020-01-17 11:00:00 6.1 28 Oeste 43 Oeste 0 -- -- 79
2020-01-17 10:00:00 4.7 30 Oeste 44 Oeste 0 -- -- 86
2020-01-17 09:00:00 3.9 18 Oeste 33 Oeste 0 -- -- 92
2020-01-17 08:00:00 4.6 26 Oeste 40 Sudoeste 0 -- -- 91
2020-01-17 07:00:00 5.3 31 Oeste 46 Oeste 0 -- -- 91
2020-01-17 06:00:00 5.2 27 Sudoeste 35 Sudoeste 0 -- -- 93
2020-01-17 05:00:00 5.1 25 Sudoeste 33 Sudoeste 0 -- -- 94
2020-01-17 04:00:00 4.6 21 Sudoeste 27 Sudoeste 0 -- -- 97
2020-01-17 03:00:00 4 18 Sudoeste 25 Sudoeste 0 -- -- 98
2020-01-17 02:00:00 4.2 18 Sudoeste 32 Sudoeste 0 -- -- 96
2020-01-17 01:00:00 4.8 17 Sudoeste 36 Sudoeste 0 -- -- 95
2020-01-17 00:00:00 5.8 32 Sudoeste 46 Sudoeste 0 -- -- 92
2020-01-16 23:00:00 5.9 30 Sudoeste 46 Sudoeste 0 -- -- 84
2020-01-16 22:00:00 6.2 29 Sudoeste 47 Sudoeste 0 -- -- 76
2020-01-16 21:00:00 6.5 35 Sudoeste 58 Sudoeste 0 -- -- 72
2020-01-16 20:00:00 8.1 32 Sudoeste 45 Sudoeste 0 -- -- 59
2020-01-16 19:00:00 7.9 36 Sudoeste 49 Sudoeste 0 -- -- 56
2020-01-16 18:00:00 8 30 Sudoeste 44 Sudoeste 0 -- -- 51
2020-01-16 17:00:00 8.9 33 Sudoeste 55 Sudoeste 0 -- -- 44
2020-01-16 16:00:00 10.9 40 Sudoeste 57 Sudoeste 0 -- -- 43
2020-01-16 15:00:00 11.1 41 Sudoeste 55 Sudoeste 0 -- -- 45
2020-01-16 14:00:00 11.4 38 Sudoeste 55 Sudoeste 0 -- -- 49
2020-01-16 13:00:00 10.8 37 Sudoeste 47 Sudoeste 0 -- -- 60
2020-01-16 12:00:00 9.5 34 Sudoeste 45 Sudoeste 0 -- -- 76
2020-01-16 11:00:00 7.2 28 Sudoeste 35 Sudoeste 0 -- -- 88
2020-01-16 10:00:00 6.1 25 Sur 33 Sur 0 -- -- 92
2020-01-16 09:00:00 5.2 25 Sur 32 Sudoeste 0 -- -- 91
2020-01-16 08:00:00 4.9 24 Sudoeste 35 Sudoeste 0 -- -- 92
2020-01-16 07:00:00 6 27 Sudoeste 35 Sudoeste 0 -- -- 93
2020-01-16 06:00:00 5.3 22 Sudoeste 31 Sudoeste 0 -- -- 92
2020-01-16 05:00:00 5.5 24 Sudoeste 31 Sudoeste 0 -- -- 91
2020-01-16 04:00:00 4.7 21 Sur 27 Sudoeste 0 -- -- 90
2020-01-16 03:00:00 6.2 19 Sudoeste 29 Sudoeste 0 -- -- 90
2020-01-16 02:00:00 6.1 21 Sur 26 Sur 0 -- -- 93
2020-01-16 01:00:00 6.2 11 Sur 23 Sur 0 -- -- 97
2020-01-16 00:00:00 5.9 18 Sur 25 Sur 0 -- -- 96
2020-01-15 23:00:00 5.9 14 Sur 22 Sudoeste 0 -- -- 96
2020-01-15 22:00:00 5 12 Sur 21 Sudoeste 0 -- -- 96
2020-01-15 21:00:00 5.6 16 Sudoeste 21 Sudoeste 0 -- -- 96
2020-01-15 20:00:00 5.5 15 Sudoeste 23 Sudoeste 0 -- -- 94
2020-01-15 19:00:00 5.4 11 Sur 18 Sudoeste 0 -- -- 93
2020-01-15 18:00:00 6.9 16 Sur 24 Sudoeste 0 -- -- 88
2020-01-15 17:00:00 8.1 21 Sudoeste 27 Sudoeste 0 -- -- 80
2020-01-15 16:00:00 8 21 Sudoeste 36 Sudoeste 0 -- -- 79
2020-01-15 15:00:00 9 27 Sudoeste 35 Sudoeste 0 -- -- 69
2020-01-15 14:00:00 8.2 26 Sudoeste 37 Sudoeste 0 -- -- 78
2020-01-15 13:00:00 6.9 33 Sudoeste 42 Sudoeste 0 -- -- 88
2020-01-15 12:00:00 6.3 30 Sudoeste 48 Sudoeste 0 -- -- 90
2020-01-15 11:00:00 5.9 37 Sudoeste 52 Sudoeste 0 -- -- 90
2020-01-15 10:00:00 5.3 32 Sudoeste 41 Sudoeste 0 -- -- 82
2020-01-15 09:00:00 4.7 27 Sudoeste 38 Sur 0 -- -- 86
2020-01-15 08:00:00 4.7 27 Sur 40 Sudoeste 0 -- -- 85
2020-01-15 07:00:00 4.8 27 Sur 47 Sudoeste 0 -- -- 86
2020-01-15 06:00:00 4.9 29 Sudoeste 41 Sudoeste 0 -- -- 87
2020-01-15 05:00:00 4.6 33 Sudoeste 44 Sudoeste 0 -- -- 90
2020-01-15 04:00:00 4.2 27 Sudoeste 38 Sudoeste 0 -- -- 93
2020-01-15 03:00:00 3.6 24 Sudoeste 37 Sudoeste 0 -- -- 93
2020-01-15 02:00:00 3.7 27 Sudoeste 93 Sur 0 -- -- 94
2020-01-15 01:00:00 4 26 Sudoeste 37 Sudoeste 0 -- -- 95
2020-01-15 00:00:00 3.8 26 Sudoeste 40 Sudoeste 0 -- -- 95
2020-01-14 23:00:00 4.8 30 Sudoeste 43 Sudoeste 0 -- -- 89
2020-01-14 22:00:00 4.2 26 Sudoeste 35 Sudoeste 0 -- -- 90
2020-01-14 21:00:00 2.6 19 Sudoeste 30 Sudoeste 0 -- -- 91
2020-01-14 20:00:00 3.4 22 Sudoeste 29 Sudoeste 0 -- -- 88
2020-01-14 19:00:00 4 21 Sudoeste 32 Sudoeste 0 -- -- 81
2020-01-14 18:00:00 6.1 21 Sudoeste 30 Sudoeste 0 -- -- 73
2020-01-14 17:00:00 6.7 23 Sudoeste 31 Sudoeste 0 -- -- 66
2020-01-14 16:00:00 7 22 Sudoeste 35 Sudoeste 0 -- -- 68
2020-01-14 15:00:00 6.6 25 Sudoeste 35 Sudoeste 0 -- -- 70
2020-01-14 14:00:00 6.4 23 Sudoeste 32 Sudoeste 0 -- -- 72
2020-01-14 13:00:00 4.3 24 Sudoeste 30 Sudoeste 0 -- -- 78
2020-01-14 12:00:00 2.5 24 Sudoeste 36 Sudoeste 0 -- -- 86
2020-01-14 11:00:00 1.4 30 Sudoeste 40 Sudoeste 0 -- -- 89
2020-01-14 10:00:00 0.6 26 Sudoeste 34 Sudoeste 0 -- -- 94
2020-01-14 09:00:00 -0.5 22 Sudoeste 32 Sur 0 -- -- 97
2020-01-14 08:00:00 -0.2 20 Sudoeste 28 Sur 0 -- -- 98
2020-01-14 07:00:00 -0.3 19 Sur 26 Sudoeste 0 -- -- 98
2020-01-14 06:00:00 -0.2 17 Sur 26 Sudoeste 0 -- -- 98
2020-01-14 05:00:00 -0.3 21 Sudoeste 26 Sudoeste 0 -- -- 98
2020-01-14 04:00:00 0.3 19 Sudoeste 26 Sudoeste 0 -- -- 98
2020-01-14 03:00:00 0.1 18 Sudoeste 23 Sudoeste 0 -- -- 98
2020-01-14 02:00:00 0.8 13 Sudoeste 28 Oeste 0 -- -- 98
2020-01-14 01:00:00 0.2 22 Sudoeste 29 Sudoeste 0 -- -- 98
2020-01-14 00:00:00 -1 12 Sudoeste 19 Sudoeste 0 -- -- 98
2020-01-13 23:00:00 -2.2 11 Sudoeste 13 Sudoeste 0 -- -- 98
2020-01-13 22:00:00 -1.4 9 Sudoeste 11 Sudoeste 0 -- -- 98
2020-01-13 21:00:00 -3.2 3 Este 8 Norte 0 -- -- 98
2020-01-13 20:00:00 -2.4 4 Sudoeste 13 Sudoeste 0 -- -- 98
2020-01-13 19:00:00 -1.6 6 Sudoeste 14 Sur 0 -- -- 99
2020-01-13 18:00:00 -0.5 12 Sur 16 Sur 0 -- -- 99
2020-01-13 17:00:00 0.1 13 Sudoeste 17 Sudoeste 0 -- -- 99
2020-01-13 16:00:00 1.2 4 Oeste 17 Oeste 0 -- -- 99
2020-01-13 15:00:00 0.4 9 Oeste 18 Oeste 0 -- -- 99
2020-01-13 14:00:00 -1.1 9 Sudoeste 15 Sudoeste 0 -- -- 98
2020-01-13 13:00:00 -2.2 7 Sudoeste 12 Oeste 0 -- -- 97
2020-01-13 12:00:00 -2.4 8 Sudoeste 11 Oeste 0 -- -- 97
2020-01-13 11:00:00 -2.9 2 Sur 12 Sudeste 0 -- -- 97
2020-01-13 10:00:00 -4.4 0 Calma 5 Noroeste 0 -- -- 98
2020-01-13 09:00:00 -4.4 4 Noroeste 12 Norte 0 -- -- 97
2020-01-13 08:00:00 -4.6 8 Sur 13 Sur 0 -- -- 97
2020-01-13 07:00:00 -4.3 2 Sudoeste 8 Oeste 0 -- -- 97
2020-01-13 06:00:00 -4.4 7 Sur 12 Sur 0 -- -- 97
2020-01-13 05:00:00 -4.7 6 Sur 10 Sudeste 0 -- -- 97
2020-01-13 04:00:00 -3.8 5 Sudeste 9 Sudeste 0 -- -- 97
2020-01-13 03:00:00 -4.2 2 Sudeste 5 Sudeste 0 -- -- 97
2020-01-13 02:00:00 -4.2 0 Calma 3 Sur 0 -- -- 98
2020-01-13 01:00:00 -3.8 0 Calma 6 Norte 0 -- -- 98
2020-01-13 00:00:00 -3.2 4 Norte 7 Noroeste 0 -- -- 98
2020-01-12 23:00:00 -3.1 2 Norte 12 Norte 0 -- -- 98
2020-01-12 22:00:00 -2.5 8 Noroeste 12 Noroeste 0 -- -- 98
2020-01-12 21:00:00 -3.1 3 Noroeste 5 Noroeste 0 -- -- 98
2020-01-12 20:00:00 -3.3 0 Calma 5 Norte 0 -- -- 98
2020-01-12 19:00:00 -1.6 0 Calma 5 Este 0 -- -- 99
2020-01-12 18:00:00 -1.1 3 Norte 14 Norte 0 -- -- 99
2020-01-12 17:00:00 -0.7 11 Norte 15 Norte 0 -- -- 99
2020-01-12 16:00:00 -0.5 8 Noroeste 10 Noroeste 0 -- -- 99
2020-01-12 15:00:00 2.2 0 Calma 7 Nordeste 0 -- -- 99
2020-01-12 14:00:00 -0.2 4 Nordeste 10 Este 0 -- -- 99
2020-01-12 13:00:00 -0.7 3 Este 6 Nordeste 0 -- -- 98
2020-01-12 12:00:00 -2 0 Calma 3 Este 0 -- -- 97
2020-01-12 11:00:00 -4.8 0 Calma 4 Este 0 -- -- 96
2020-01-12 10:00:00 -6 0 Calma -- -- 0 -- -- 95
2020-01-12 09:00:00 -7.2 0 Calma -- -- 0 -- -- 95
2020-01-12 08:00:00 -6.5 0 Calma -- -- 0 -- -- 96
2020-01-12 07:00:00 -6.3 0 Calma -- -- 0 -- -- 96
2020-01-12 06:00:00 -5.7 0 Calma -- -- 0 -- -- 96
2020-01-12 05:00:00 -6.2 0 Calma 4 Sur 0 -- -- 96
2020-01-12 04:00:00 -5.4 4 Sur 8 Sur 0 -- -- 97
2020-01-12 03:00:00 -4.9 6 Sur 10 Sur 0 -- -- 97
2020-01-12 02:00:00 -4.5 5 Sudoeste 9 Sur 0 -- -- 97
2020-01-12 01:00:00 -4.5 8 Sur 11 Sudoeste 0 -- -- 97
2020-01-12 00:00:00 -4.2 10 Sudoeste 14 Sudoeste 0 -- -- 97
2020-01-11 23:00:00 -4.9 10 Sudoeste 14 Sudoeste 0 -- -- 96
2020-01-11 22:00:00 -5.5 9 Sudoeste 12 Sudoeste 0 -- -- 96
2020-01-11 21:00:00 -5 9 Sudoeste 12 Sudoeste 0 -- -- 97
2020-01-11 20:00:00 -3.7 10 Sudoeste 13 Sur 0 -- -- 98
2020-01-11 19:00:00 -3 7 Sudoeste 10 Sudoeste 0 -- -- 98
2020-01-11 18:00:00 -1.4 10 Sudoeste 14 Sudoeste 0 -- -- 98
2020-01-11 17:00:00 3.8 9 Sur 13 Sudoeste 0 -- -- 80
2020-01-11 16:00:00 4.6 9 Sudoeste 18 Sudoeste 0 -- -- 75
2020-01-11 15:00:00 5.9 6 Sudoeste 13 Sur 0 -- -- 71
2020-01-11 14:00:00 6.3 2 Nordeste 9 Este 0 -- -- 67
2020-01-11 13:00:00 5.1 2 Nordeste 7 Sudeste 0 -- -- 70
2020-01-11 12:00:00 3.2 6 Este 13 Nordeste 0 -- -- 82
2020-01-11 11:00:00 0.3 12 Nordeste 15 Nordeste 0 -- -- 97
2020-01-11 10:00:00 -1.7 9 Nordeste 14 Nordeste 0 -- -- 97
2020-01-11 09:00:00 -3 12 Nordeste 14 Nordeste 0 -- -- 97
2020-01-11 08:00:00 -3.7 7 Nordeste 11 Nordeste 0 -- -- 97
2020-01-11 07:00:00 -2.9 9 Norte 11 Norte 0 -- -- 97
2020-01-11 06:00:00 -4 9 Noroeste 11 Norte 0 -- -- 97
2020-01-11 05:00:00 -1.3 5 Este 19 Este 0 -- -- 92
2020-01-11 04:00:00 -0.9 13 Este 17 Este 0 -- -- 91
2020-01-11 03:00:00 0.3 15 Nordeste 23 Nordeste 0 -- -- 89
2020-01-11 02:00:00 0.1 13 Este 24 Este 0 -- -- 91
2020-01-11 01:00:00 0.7 20 Este 32 Nordeste 0 -- -- 91
2020-01-11 00:00:00 -0.2 14 Nordeste 22 Nordeste 0 -- -- 93
2020-01-10 23:00:00 1 8 Nordeste 19 Nordeste 0 -- -- 90
2020-01-10 22:00:00 1.2 15 Nordeste 23 Nordeste 0 -- -- 89
2020-01-10 21:00:00 1.9 15 Nordeste 19 Nordeste 0 -- -- 84
2020-01-10 20:00:00 2.3 13 Este 19 Este 0 -- -- 77
2020-01-10 19:00:00 3.9 6 Nordeste 12 Nordeste 0 -- -- 73
2020-01-10 18:00:00 4.6 7 Norte 10 Norte 0 -- -- 71
2020-01-10 17:00:00 6.1 6 Norte 13 Este 0 -- -- 62
2020-01-10 16:00:00 6.2 7 Nordeste 15 Este 0 -- -- 57
2020-01-10 15:00:00 6.5 7 Nordeste 14 Sudeste 0 -- -- 57
2020-01-10 14:00:00 7.4 4 Este 10 Sur 0 -- -- 56
2020-01-10 13:00:00 6.3 3 Este 10 Sudeste 0 -- -- 68
2020-01-10 12:00:00 3.7 4 Noroeste 10 Noroeste 0 -- -- 80
2020-01-10 11:00:00 2.7 3 Noroeste 5 Noroeste 0 -- -- 85
2020-01-10 10:00:00 0 2 Este 8 Este 0 -- -- 92
2020-01-10 09:00:00 -1.6 3 Este 10 Este 0 -- -- 94
2020-01-10 08:00:00 -1.3 4 Sudoeste 9 Noroeste 0 -- -- 93
2020-01-10 07:00:00 -1.2 12 Noroeste 18 Noroeste 0 -- -- 92
2020-01-10 06:00:00 -0.7 12 Noroeste 23 Noroeste 0 -- -- 90
2020-01-10 05:00:00 -0.1 18 Noroeste 24 Noroeste 0 -- -- 89
2020-01-10 04:00:00 -0.5 13 Noroeste 22 Noroeste 0 -- -- 89
2020-01-10 03:00:00 0 20 Noroeste 28 Noroeste 0 -- -- 87
2020-01-10 02:00:00 0 19 Oeste 27 Oeste 0 -- -- 87
2020-01-10 01:00:00 0.7 22 Oeste 37 Oeste 0 -- -- 83
2020-01-10 00:00:00 2.2 31 Oeste 40 Oeste 0 -- -- 77
2020-01-09 23:00:00 2.7 29 Oeste 39 Oeste 0 -- -- 78
2020-01-09 22:00:00 3.4 21 Oeste 32 Oeste 0 -- -- 84
2020-01-09 21:00:00 5.5 20 Oeste 27 Oeste 0 -- -- 91
2020-01-09 20:00:00 6.2 20 Oeste 39 Oeste 0 -- -- 95
2020-01-09 19:00:00 7.4 23 Oeste 37 Oeste 0 -- -- 93
2020-01-09 18:00:00 8.2 29 Oeste 42 Oeste 0 -- -- 87
2020-01-09 17:00:00 8.7 23 Oeste 36 Oeste 0 -- -- 90
2020-01-09 16:00:00 6.4 23 Sudoeste 32 Sudoeste 0 -- -- 91
2020-01-09 15:00:00 6.5 22 Sur 30 Sudoeste 0 -- -- 93
2020-01-09 14:00:00 4.9 20 Sudoeste 26 Sudoeste 0 -- -- 97
2020-01-09 13:00:00 3.9 16 Sudoeste 26 Sudoeste 0 -- -- 95
2020-01-09 12:00:00 2.6 18 Sudoeste 25 Sudoeste 0 -- -- 94
2020-01-09 11:00:00 2.5 16 Sudoeste 20 Sudoeste 0 -- -- 90
2020-01-09 10:00:00 0 14 Sudoeste 18 Sudoeste 0 -- -- 97
2020-01-09 09:00:00 -1.4 12 Sudoeste 16 Sudoeste 0 -- -- 97
2020-01-09 08:00:00 -1.4 12 Sudoeste 15 Sudoeste 0 -- -- 97
2020-01-09 07:00:00 -0.8 10 Sudoeste 14 Sudoeste 0 -- -- 97
2020-01-09 06:00:00 -0.4 8 Sudoeste 16 Sudoeste 0 -- -- 97
2020-01-09 05:00:00 -0.2 13 Sudoeste 15 Sudoeste 0 -- -- 97
2020-01-09 04:00:00 0 8 Sudoeste 10 Sudoeste 0 -- -- 97
2020-01-09 03:00:00 0 9 Sudoeste 12 Sudoeste 0 -- -- 93
2020-01-09 02:00:00 1.3 9 Sudoeste 10 Sudoeste 0 -- -- 90
2020-01-09 01:00:00 2.3 4 Sudoeste 6 Oeste 0 -- -- 89
2020-01-09 00:00:00 4.2 0 Calma 4 Sudeste 0 -- -- 87
2020-01-08 23:00:00 2.6 0 Calma 5 Noroeste 0 -- -- 94
2020-01-08 22:00:00 3.1 4 Oeste 5 Oeste 0 -- -- 92
2020-01-08 21:00:00 3 4 Sudoeste 6 Oeste 0 -- -- 92
2020-01-08 20:00:00 2.9 5 Oeste 9 Oeste 0 -- -- 91
2020-01-08 19:00:00 3.1 6 Oeste 8 Oeste 0 -- -- 90
2020-01-08 18:00:00 5 6 Oeste 13 Noroeste 0 -- -- 81
2020-01-08 17:00:00 6.2 11 Noroeste 13 Noroeste 0 -- -- 74
2020-01-08 16:00:00 7 8 Noroeste 10 Noroeste 0 -- -- 69
2020-01-08 15:00:00 7.3 4 Noroeste 9 Noroeste 0 -- -- 72
2020-01-08 14:00:00 4.9 3 Norte 10 Noroeste 0 -- -- 98
2020-01-08 13:00:00 3.4 3 Nordeste 9 Noroeste 0 -- -- 98
2020-01-08 12:00:00 0.1 5 Noroeste 6 Noroeste 0 -- -- 98
2020-01-08 11:00:00 -1.8 6 Noroeste 10 Noroeste 0 -- -- 97
2020-01-08 10:00:00 -2.7 8 Este 11 Sudeste 0 -- -- 97
2020-01-08 09:00:00 -4.7 6 Este 8 Este 0 -- -- 97
2020-01-08 08:00:00 -4.5 5 Noroeste 8 Noroeste 0 -- -- 97
2020-01-08 07:00:00 -4.1 6 Noroeste 8 Noroeste 0 -- -- 97
2020-01-08 06:00:00 -4.6 4 Noroeste 5 Noroeste 0 -- -- 97
2020-01-08 05:00:00 -4.4 4 Norte 5 Norte 0 -- -- 97
2020-01-08 04:00:00 -3.8 5 Norte 9 Norte 0 -- -- 97
2020-01-08 03:00:00 -4.3 3 Noroeste 10 Sur 0 -- -- 97
2020-01-08 02:00:00 -4 4 Sur 7 Sur 0 -- -- 97
2020-01-08 01:00:00 -3.7 2 Sudeste 4 Sudeste 0 -- -- 97
2020-01-08 00:00:00 -3.3 4 Este 7 Sudeste 0 -- -- 97
2020-01-07 23:00:00 -3.2 0 Calma 9 Sudeste 0 -- -- 97
2020-01-07 22:00:00 -2.8 5 Sudeste 8 Norte 0 -- -- 97
2020-01-07 21:00:00 -2.2 5 Norte 8 Norte 0 -- -- 97
2020-01-07 20:00:00 -1.4 2 Sudeste 5 Norte 0 -- -- 98
2020-01-07 19:00:00 -1.4 4 Noroeste 8 Oeste 0 -- -- 98
2020-01-07 18:00:00 -0.4 3 Noroeste 6 Norte 0 -- -- 98
2020-01-07 17:00:00 0.2 3 Sudoeste 10 Noroeste 0 -- -- 98
2020-01-07 16:00:00 0.5 5 Noroeste 10 Noroeste 0 -- -- 98
2020-01-07 15:00:00 2.4 3 Oeste 8 Sudoeste 0 -- -- 98
2020-01-07 14:00:00 -0.3 4 Sur 8 Sur 0 -- -- 98
2020-01-07 13:00:00 -1.7 3 Oeste 10 Noroeste 0 -- -- 97
2020-01-07 12:00:00 -2.4 5 Sudeste 9 Sudeste 0 -- -- 97
2020-01-07 11:00:00 -3.3 4 Norte 10 Norte 0 -- -- 97
2020-01-07 10:00:00 -4.2 5 Sur 12 Sudeste 0 -- -- 97
2020-01-07 09:00:00 -3.7 7 Sudeste 12 Sudeste 0 -- -- 97
2020-01-07 08:00:00 -3.8 4 Este 8 Nordeste 0 -- -- 97
2020-01-07 07:00:00 -4 3 Nordeste 8 Nordeste 0 -- -- 97
2020-01-07 06:00:00 -3.7 2 Este 7 Nordeste 0 -- -- 97
2020-01-07 05:00:00 -3.7 2 Nordeste 11 Norte 0 -- -- 97
2020-01-07 04:00:00 -3.6 6 Norte 10 Norte 0 -- -- 97
2020-01-07 03:00:00 -3.4 4 Noroeste 8 Noroeste 0 -- -- 97
2020-01-07 02:00:00 -2.9 0 Calma 6 Nordeste 0 -- -- 97
2020-01-07 01:00:00 -2.6 5 Nordeste 10 Norte 0 -- -- 97
2020-01-07 00:00:00 -2.4 6 Este 13 Este 0 -- -- 97
2020-01-06 23:00:00 -2.6 8 Sudeste 12 Sudeste 0 -- -- 97
2020-01-06 22:00:00 -2.7 6 Nordeste 11 Nordeste 0 -- -- 97
2020-01-06 21:00:00 -2.7 3 Sudeste 13 Sudeste 0 -- -- 97
2020-01-06 20:00:00 -2.4 6 Este 12 Este 0 -- -- 97
2020-01-06 19:00:00 -2.1 7 Norte 11 Norte 0 -- -- 98
2020-01-06 18:00:00 -1.3 0 Calma 8 Noroeste 0 -- -- 98
2020-01-06 17:00:00 -0.9 2 Noroeste 10 Noroeste 0 -- -- 98
2020-01-06 16:00:00 -0.6 8 Noroeste 12 Noroeste 0 -- -- 98
2020-01-06 15:00:00 -0.8 4 Oeste 12 Sudeste 0 -- -- 98
2020-01-06 14:00:00 -1.4 0 Calma 10 Noroeste 0 -- -- 97
2020-01-06 13:00:00 -1.7 4 Noroeste 13 Sudeste 0 -- -- 97
2020-01-06 12:00:00 -2.9 4 Sur 11 Sur 0 -- -- 97
2020-01-06 11:00:00 -3.9 0 Calma 9 Norte 0 -- -- 97
2020-01-06 10:00:00 -4.1 4 Oeste 7 Sudeste 0 -- -- 97